Alleghany, CA (95910)

4:24 PM PDT on August 30, 2015 (GMT -0700)
MesoWest | | Change Station
CLOSE
Current Station
Personal Weather Station
Location: Emigrant Gap, CA
Elevation: 6620 ft
Nearby Weather Stations

Elev 6620 ft 39.31 °N, 120.56 °W | Updated 44 minutes ago

Clear
Clear
66 °F
Feels Like 66 °F
N
10
Wind Variable Wind from West
Gusts 20.0 mph

Today
High -- | Low -- °F
--% Chance of Precip.
Yesterday
High -- | Low -- °F
Precip. -- in
6:28 AM 7:36 PM
Full, 98% visible
Pressure 29.95 in
Visibility 10.0 miles
Clouds Clear
Dew Point 22 °F
Humidity 18%
Rainfall in
Snow Depth Not available.
UV 6 out of 12
Pollen 8.50 out of 12
Air Quality Not available.
Flu Activity Not available.
METAR KBLU 302252Z AUTO 20008G14KT 160V250 10SM CLR 21/M01 A3017 RMK AO2 SLP141 T02111006
Pressure 29.95 in
Visibility 10.0 miles
Clouds Clear
Dew Point 22 °F
Humidity 18%
Rainfall in
Snow Depth Not available.
UV 6 out of 12
Pollen 8.50 out of 12
Air Quality Not available.
Flu Activity Not available.
METAR KBLU 302252Z AUTO 20008G14KT 160V250 10SM CLR 21/M01 A3017 RMK AO2 SLP141 T02111006

10-Day Weather Forecast

×

Almanac

Astronomy

Aug. 30, 2015 Rise Set
Actual Time
Civil Twilight
Nautical Twilight
Astronomical Twilight
Moon
Length of Visible Light
Length of Day
Tomorrow will be .
, % of the Moon is Illuminated

Today's Extremes

State Highs State Lows

Community

WunderPhotos

Upload Photos

1,851,084 photos uploaded!

WunderBlogs® & News

Nearby

Air Quality

  Air Quality AQ Index Pollutant
Not available.

Snow Depth

Station Depth Elevation

Earthquake Activity

City Distance Mag. Time & Date
Minimum magnitude displayed is 2.5.

Coastal Water Temperatures

Place Temperature

Stations

Nearby Weather Stations

Station Location Temp. Windchill Dew Point Humidity Wind Precip. Elev Updated Type